sensor_id;sensor_type;location;lat;lon;timestamp;pressure;altitude;pressure_sealevel;temperature;humidity
31346;BME280;21711;49.708;18.568;2023-03-01T00:01:39;98425.00;;;-3.28;100.00
31346;BME280;21711;49.708;18.568;2023-03-01T00:04:07;98422.72;;;-3.31;100.00
31346;BME280;21711;49.708;18.568;2023-03-01T00:06:35;98427.41;;;-3.35;100.00
31346;BME280;21711;49.708;18.568;2023-03-01T00:09:03;98428.66;;;-3.39;100.00
31346;BME280;21711;49.708;18.568;2023-03-01T00:11:32;98421.25;;;-3.42;100.00
31346;BME280;21711;49.708;18.568;2023-03-01T00:14:01;98430.09;;;-3.45;100.00
31346;BME280;21711;49.708;18.568;2023-03-01T00:16:33;98434.97;;;-3.41;100.00
31346;BME280;21711;49.708;18.568;2023-03-01T00:19:02;98429.34;;;-3.37;100.00
31346;BME280;21711;49.708;18.568;2023-03-01T00:21:29;98431.75;;;-3.35;100.00
31346;BME280;21711;49.708;18.568;2023-03-01T00:23:57;98432.13;;;-3.30;100.00
31346;BME280;21711;49.708;18.568;2023-03-01T00:26:26;98425.78;;;-3.36;100.00
31346;BME280;21711;49.708;18.568;2023-03-01T00:28:54;98432.31;;;-3.50;100.00
31346;BME280;21711;49.708;18.568;2023-03-01T00:31:28;98417.13;;;-3.53;100.00
31346;BME280;21711;49.708;18.568;2023-03-01T00:34:02;98433.22;;;-3.59;100.00
31346;BME280;21711;49.708;18.568;2023-03-01T00:36:34;98418.75;;;-3.52;100.00
31346;BME280;21711;49.708;18.568;2023-03-01T00:39:04;98426.66;;;-3.53;100.00
31346;BME280;21711;49.708;18.568;2023-03-01T00:41:31;98418.78;;;-3.44;100.00
31346;BME280;21711;49.708;18.568;2023-03-01T00:44:01;98418.66;;;-3.42;100.00
31346;BME280;21711;49.708;18.568;2023-03-01T00:46:29;98421.38;;;-3.44;100.00
31346;BME280;21711;49.708;18.568;2023-03-01T00:48:58;98420.38;;;-3.51;100.00
31346;BME280;21711;49.708;18.568;2023-03-01T00:51:27;98411.97;;;-3.53;100.00
31346;BME280;21711;49.708;18.568;2023-03-01T00:53:59;98414.88;;;-3.48;100.00
31346;BME280;21711;49.708;18.568;2023-03-01T00:56:28;98405.97;;;-3.53;100.00
31346;BME280;21711;49.708;18.568;2023-03-01T00:58:56;98406.88;;;-3.63;100.00
31346;BME280;21711;49.708;18.568;2023-03-01T01:01:27;98404.91;;;-3.69;100.00
31346;BME280;21711;49.708;18.568;2023-03-01T01:04:04;98406.72;;;-3.88;100.00
31346;BME280;21711;49.708;18.568;2023-03-01T01:06:43;98407.91;;;-4.00;100.00
31346;BME280;21711;49.708;18.568;2023-03-01T01:09:14;98414.28;;;-3.94;100.00
31346;BME280;21711;49.708;18.568;2023-03-01T01:11:49;98411.22;;;-3.90;100.00
31346;BME280;21711;49.708;18.568;2023-03-01T01:14:18;98416.59;;;-3.83;100.00
31346;BME280;21711;49.708;18.568;2023-03-01T01:16:45;98420.00;;;-3.83;100.00
31346;BME280;21711;49.708;18.568;2023-03-01T01:19:13;98418.06;;;-3.80;100.00
31346;BME280;21711;49.708;18.568;2023-03-01T01:21:41;98413.88;;;-3.81;100.00
31346;BME280;21711;49.708;18.568;2023-03-01T01:24:10;98405.41;;;-3.92;100.00
31346;BME280;21711;49.708;18.568;2023-03-01T01:26:38;98396.47;;;-3.98;100.00
31346;BME280;21711;49.708;18.568;2023-03-01T01:29:06;98397.06;;;-4.04;100.00
31346;BME280;21711;49.708;18.568;2023-03-01T01:31:35;98401.41;;;-4.04;100.00
31346;BME280;21711;49.708;18.568;2023-03-01T01:34:05;98406.38;;;-3.93;100.00
31346;BME280;21711;49.708;18.568;2023-03-01T01:36:34;98399.94;;;-3.89;100.00
31346;BME280;21711;49.708;18.568;2023-03-01T01:39:02;98406.38;;;-3.93;100.00
31346;BME280;21711;49.708;18.568;2023-03-01T01:41:30;98402.59;;;-3.99;100.00
31346;BME280;21711;49.708;18.568;2023-03-01T01:44:22;98394.50;;;-4.04;100.00
31346;BME280;21711;49.708;18.568;2023-03-01T01:49:42;98392.22;;;-4.25;100.00
31346;BME280;21711;49.708;18.568;2023-03-01T01:54:57;98396.69;;;-3.91;100.00
31346;BME280;21711;49.708;18.568;2023-03-01T01:57:43;98402.41;;;-3.79;100.00
31346;BME280;21711;49.708;18.568;2023-03-01T02:00:20;98394.50;;;-3.77;100.00
31346;BME280;21711;49.708;18.568;2023-03-01T02:02:55;98395.22;;;-3.93;100.00
31346;BME280;21711;49.708;18.568;2023-03-01T02:05:53;98395.13;;;-4.02;100.00
31346;BME280;21711;49.708;18.568;2023-03-01T02:08:27;98386.25;;;-4.07;100.00
31346;BME280;21711;49.708;18.568;2023-03-01T02:10:58;98393.91;;;-4.16;100.00
31346;BME280;21711;49.708;18.568;2023-03-01T02:13:27;98398.34;;;-4.08;100.00
31346;BME280;21711;49.708;18.568;2023-03-01T02:15:55;98389.81;;;-4.00;100.00
31346;BME280;21711;49.708;18.568;2023-03-01T02:18:24;98393.09;;;-3.98;100.00
31346;BME280;21711;49.708;18.568;2023-03-01T02:21:41;98383.03;;;-4.01;100.00
31346;BME280;21711;49.708;18.568;2023-03-01T02:24:42;98388.56;;;-3.96;100.00
31346;BME280;21711;49.708;18.568;2023-03-01T02:27:13;98388.28;;;-3.93;100.00
31346;BME280;21711;49.708;18.568;2023-03-01T02:29:40;98380.38;;;-3.91;100.00
31346;BME280;21711;49.708;18.568;2023-03-01T02:32:11;98376.75;;;-3.99;100.00
31346;BME280;21711;49.708;18.568;2023-03-01T02:34:39;98381.34;;;-4.11;100.00
31346;BME280;21711;49.708;18.568;2023-03-01T02:37:14;98370.69;;;-4.34;100.00
31346;BME280;21711;49.708;18.568;2023-03-01T02:39:48;98372.25;;;-4.41;100.00
31346;BME280;21711;49.708;18.568;2023-03-01T02:42:23;98368.03;;;-4.42;100.00
31346;BME280;21711;49.708;18.568;2023-03-01T02:44:53;98361.41;;;-4.45;100.00
31346;BME280;21711;49.708;18.568;2023-03-01T02:47:20;98352.06;;;-4.38;100.00
31346;BME280;21711;49.708;18.568;2023-03-01T02:49:48;98350.59;;;-4.40;100.00
31346;BME280;21711;49.708;18.568;2023-03-01T02:52:34;98348.31;;;-4.25;100.00
31346;BME280;21711;49.708;18.568;2023-03-01T02:55:12;98345.28;;;-4.39;100.00
31346;BME280;21711;49.708;18.568;2023-03-01T02:57:44;98335.22;;;-4.50;100.00
31346;BME280;21711;49.708;18.568;2023-03-01T03:00:21;98330.69;;;-4.48;100.00
31346;BME280;21711;49.708;18.568;2023-03-01T03:02:53;98331.53;;;-4.47;100.00
31346;BME280;21711;49.708;18.568;2023-03-01T03:05:28;98331.06;;;-4.43;100.00
31346;BME280;21711;49.708;18.568;2023-03-01T03:07:59;98331.06;;;-4.43;100.00
31346;BME280;21711;49.708;18.568;2023-03-01T03:10:30;98332.84;;;-4.43;100.00
31346;BME280;21711;49.708;18.568;2023-03-01T03:13:10;98328.47;;;-4.43;100.00
31346;BME280;21711;49.708;18.568;2023-03-01T03:15:38;98326.56;;;-4.41;100.00
31346;BME280;21711;49.708;18.568;2023-03-01T03:18:09;98324.41;;;-4.45;100.00
31346;BME280;21711;49.708;18.568;2023-03-01T03:20:41;98333.34;;;-4.40;100.00
31346;BME280;21711;49.708;18.568;2023-03-01T03:23:09;98332.75;;;-4.33;100.00
31346;BME280;21711;49.708;18.568;2023-03-01T03:25:36;98334.81;;;-4.37;100.00
31346;BME280;21711;49.708;18.568;2023-03-01T03:28:06;98334.59;;;-4.44;100.00
31346;BME280;21711;49.708;18.568;2023-03-01T03:30:40;98330.25;;;-4.43;100.00
31346;BME280;21711;49.708;18.568;2023-03-01T03:33:10;98323.09;;;-4.50;100.00
31346;BME280;21711;49.708;18.568;2023-03-01T03:35:47;98313.38;;;-4.56;100.00
31346;BME280;21711;49.708;18.568;2023-03-01T03:38:18;98314.06;;;-4.54;100.00
31346;BME280;21711;49.708;18.568;2023-03-01T03:41:08;98316.88;;;-4.39;100.00
31346;BME280;21711;49.708;18.568;2023-03-01T03:43:37;98319.19;;;-4.36;100.00
31346;BME280;21711;49.708;18.568;2023-03-01T03:46:06;98328.69;;;-4.36;100.00
31346;BME280;21711;49.708;18.568;2023-03-01T03:48:40;98330.94;;;-4.59;100.00
31346;BME280;21711;49.708;18.568;2023-03-01T03:51:12;98335.88;;;-4.66;100.00
31346;BME280;21711;49.708;18.568;2023-03-01T03:53:40;98342.56;;;-4.73;100.00
31346;BME280;21711;49.708;18.568;2023-03-01T03:56:07;98350.63;;;-4.77;100.00
31346;BME280;21711;49.708;18.568;2023-03-01T03:58:35;98342.22;;;-4.97;100.00
31346;BME280;21711;49.708;18.568;2023-03-01T04:01:04;98347.09;;;-4.94;100.00
31346;BME280;21711;49.708;18.568;2023-03-01T04:03:32;98350.03;;;-4.89;100.00
31346;BME280;21711;49.708;18.568;2023-03-01T04:06:03;98351.75;;;-4.79;100.00
31346;BME280;21711;49.708;18.568;2023-03-01T04:08:31;98350.19;;;-4.90;100.00
31346;BME280;21711;49.708;18.568;2023-03-01T04:11:02;98355.63;;;-4.93;100.00
31346;BME280;21711;49.708;18.568;2023-03-01T04:13:50;98344.28;;;-5.00;100.00
31346;BME280;21711;49.708;18.568;2023-03-01T04:16:18;98343.97;;;-4.97;100.00
31346;BME280;21711;49.708;18.568;2023-03-01T04:18:47;98348.19;;;-4.96;100.00
31346;BME280;21711;49.708;18.568;2023-03-01T04:21:14;98350.59;;;-4.95;100.00
31346;BME280;21711;49.708;18.568;2023-03-01T04:23:42;98346.53;;;-4.97;100.00
31346;BME280;21711;49.708;18.568;2023-03-01T04:26:09;98340.88;;;-5.01;100.00
31346;BME280;21711;49.708;18.568;2023-03-01T04:28:40;98347.59;;;-4.90;100.00
31346;BME280;21711;49.708;18.568;2023-03-01T04:31:14;98344.50;;;-4.94;100.00
31346;BME280;21711;49.708;18.568;2023-03-01T04:33:52;98340.72;;;-4.99;100.00
31346;BME280;21711;49.708;18.568;2023-03-01T04:36:23;98335.56;;;-4.99;100.00
31346;BME280;21711;49.708;18.568;2023-03-01T04:38:51;98329.31;;;-4.97;100.00
31346;BME280;21711;49.708;18.568;2023-03-01T04:41:21;98341.34;;;-4.88;100.00
31346;BME280;21711;49.708;18.568;2023-03-01T04:43:49;98337.66;;;-4.85;100.00
31346;BME280;21711;49.708;18.568;2023-03-01T04:46:20;98342.66;;;-4.83;100.00
31346;BME280;21711;49.708;18.568;2023-03-01T04:48:48;98339.94;;;-4.82;100.00
31346;BME280;21711;49.708;18.568;2023-03-01T04:51:15;98337.34;;;-4.82;100.00
31346;BME280;21711;49.708;18.568;2023-03-01T04:53:44;98340.59;;;-4.62;100.00
31346;BME280;21711;49.708;18.568;2023-03-01T04:56:12;98350.78;;;-4.60;100.00
31346;BME280;21711;49.708;18.568;2023-03-01T04:58:41;98346.50;;;-4.69;100.00
31346;BME280;21711;49.708;18.568;2023-03-01T05:01:12;98340.97;;;-4.75;100.00
31346;BME280;21711;49.708;18.568;2023-03-01T05:03:44;98330.22;;;-4.70;100.00
31346;BME280;21711;49.708;18.568;2023-03-01T05:06:12;98336.03;;;-4.68;100.00
31346;BME280;21711;49.708;18.568;2023-03-01T05:08:41;98337.13;;;-4.70;100.00
31346;BME280;21711;49.708;18.568;2023-03-01T05:11:08;98339.06;;;-4.72;100.00
31346;BME280;21711;49.708;18.568;2023-03-01T05:13:38;98340.06;;;-4.65;100.00
31346;BME280;21711;49.708;18.568;2023-03-01T05:16:08;98338.81;;;-4.61;100.00
31346;BME280;21711;49.708;18.568;2023-03-01T05:18:40;98336.75;;;-4.57;100.00
31346;BME280;21711;49.708;18.568;2023-03-01T05:21:13;98335.78;;;-4.56;100.00
31346;BME280;21711;49.708;18.568;2023-03-01T05:23:44;98345.09;;;-4.45;100.00
31346;BME280;21711;49.708;18.568;2023-03-01T05:26:14;98353.63;;;-4.27;100.00
31346;BME280;21711;49.708;18.568;2023-03-01T05:28:55;98348.53;;;-4.18;100.00
31346;BME280;21711;49.708;18.568;2023-03-01T05:31:27;98339.16;;;-4.19;100.00
31346;BME280;21711;49.708;18.568;2023-03-01T05:33:54;98351.50;;;-4.50;100.00
31346;BME280;21711;49.708;18.568;2023-03-01T05:36:21;98347.09;;;-4.76;100.00
31346;BME280;21711;49.708;18.568;2023-03-01T05:38:49;98348.19;;;-4.78;100.00
31346;BME280;21711;49.708;18.568;2023-03-01T05:41:16;98350.41;;;-4.83;100.00
31346;BME280;21711;49.708;18.568;2023-03-01T05:43:44;98351.06;;;-4.99;100.00
31346;BME280;21711;49.708;18.568;2023-03-01T05:46:12;98347.38;;;-4.97;100.00
31346;BME280;21711;49.708;18.568;2023-03-01T05:48:42;98340.28;;;-4.95;100.00
31346;BME280;21711;49.708;18.568;2023-03-01T05:51:09;98344.06;;;-4.89;100.00
31346;BME280;21711;49.708;18.568;2023-03-01T05:53:37;98341.19;;;-4.68;100.00
31346;BME280;21711;49.708;18.568;2023-03-01T05:56:04;98344.50;;;-4.39;100.00
31346;BME280;21711;49.708;18.568;2023-03-01T05:58:32;98353.34;;;-4.24;100.00
31346;BME280;21711;49.708;18.568;2023-03-01T06:00:59;98350.50;;;-4.12;100.00
31346;BME280;21711;49.708;18.568;2023-03-01T06:03:26;98353.50;;;-3.99;100.00
31346;BME280;21711;49.708;18.568;2023-03-01T06:05:57;98341.72;;;-3.66;100.00
31346;BME280;21711;49.708;18.568;2023-03-01T06:08:25;98353.13;;;-3.51;100.00
31346;BME280;21711;49.708;18.568;2023-03-01T06:10:54;98348.50;;;-3.31;100.00
31346;BME280;21711;49.708;18.568;2023-03-01T06:13:23;98350.19;;;-3.05;100.00
31346;BME280;21711;49.708;18.568;2023-03-01T06:15:50;98351.88;;;-2.87;100.00
31346;BME280;21711;49.708;18.568;2023-03-01T06:18:19;98342.38;;;-2.53;100.00
31346;BME280;21711;49.708;18.568;2023-03-01T06:20:53;98342.03;;;-2.33;100.00
31346;BME280;21711;49.708;18.568;2023-03-01T06:23:22;98349.13;;;-1.94;100.00
31346;BME280;21711;49.708;18.568;2023-03-01T06:25:50;98350.56;;;-1.26;100.00
31346;BME280;21711;49.708;18.568;2023-03-01T06:28:17;98351.00;;;-0.59;100.00
31346;BME280;21711;49.708;18.568;2023-03-01T06:30:45;98361.50;;;0.55;94.81
31346;BME280;21711;49.708;18.568;2023-03-01T06:33:13;98357.50;;;1.41;87.50
31346;BME280;21711;49.708;18.568;2023-03-01T06:35:41;98360.00;;;2.06;81.77
31346;BME280;21711;49.708;18.568;2023-03-01T06:38:09;98366.53;;;2.95;78.27
31346;BME280;21711;49.708;18.568;2023-03-01T06:40:36;98360.22;;;3.45;72.92
31346;BME280;21711;49.708;18.568;2023-03-01T06:43:03;98362.84;;;3.58;72.49
31346;BME280;21711;49.708;18.568;2023-03-01T06:45:31;98356.03;;;3.71;71.53
31346;BME280;21711;49.708;18.568;2023-03-01T06:48:06;98362.06;;;3.78;70.39
31346;BME280;21711;49.708;18.568;2023-03-01T06:50:36;98367.25;;;4.32;68.91
31346;BME280;21711;49.708;18.568;2023-03-01T06:53:05;98362.13;;;5.17;65.33
31346;BME280;21711;49.708;18.568;2023-03-01T06:55:32;98371.16;;;5.28;65.81
31346;BME280;21711;49.708;18.568;2023-03-01T06:58:01;98364.00;;;6.25;62.78
31346;BME280;21711;49.708;18.568;2023-03-01T07:00:29;98358.94;;;6.23;61.34
31346;BME280;21711;49.708;18.568;2023-03-01T07:03:01;98358.56;;;5.69;63.28
31346;BME280;21711;49.708;18.568;2023-03-01T07:05:30;98355.06;;;5.17;63.48
31346;BME280;21711;49.708;18.568;2023-03-01T07:07:57;98359.22;;;4.27;68.52
31346;BME280;21711;49.708;18.568;2023-03-01T07:10:25;98351.78;;;3.70;73.08
31346;BME280;21711;49.708;18.568;2023-03-01T07:12:59;98351.56;;;3.91;70.93
31346;BME280;21711;49.708;18.568;2023-03-01T07:15:27;98351.50;;;3.17;75.62
31346;BME280;21711;49.708;18.568;2023-03-01T07:17:56;98352.47;;;3.02;76.12
31346;BME280;21711;49.708;18.568;2023-03-01T07:20:23;98351.03;;;2.93;74.63
31346;BME280;21711;49.708;18.568;2023-03-01T07:22:54;98355.09;;;3.09;73.66
31346;BME280;21711;49.708;18.568;2023-03-01T07:25:21;98349.28;;;3.07;71.28
31346;BME280;21711;49.708;18.568;2023-03-01T07:27:51;98343.63;;;3.10;73.74
31346;BME280;21711;49.708;18.568;2023-03-01T07:30:20;98345.94;;;3.47;72.30
31346;BME280;21711;49.708;18.568;2023-03-01T07:32:48;98347.16;;;3.92;70.05
31346;BME280;21711;49.708;18.568;2023-03-01T07:35:16;98347.91;;;4.26;68.89
31346;BME280;21711;49.708;18.568;2023-03-01T07:37:43;98366.03;;;4.48;67.91
31346;BME280;21711;49.708;18.568;2023-03-01T07:40:11;98351.94;;;5.02;66.59
31346;BME280;21711;49.708;18.568;2023-03-01T07:42:39;98356.19;;;5.60;64.04
31346;BME280;21711;49.708;18.568;2023-03-01T07:45:07;98364.31;;;5.59;64.05
31346;BME280;21711;49.708;18.568;2023-03-01T07:47:34;98365.97;;;7.47;57.27
31346;BME280;21711;49.708;18.568;2023-03-01T07:50:03;98369.97;;;8.04;54.01
31346;BME280;21711;49.708;18.568;2023-03-01T07:52:30;98376.78;;;9.47;49.66
31346;BME280;21711;49.708;18.568;2023-03-01T07:54:58;98366.88;;;10.85;45.79
31346;BME280;21711;49.708;18.568;2023-03-01T07:57:25;98364.22;;;10.85;44.76
31346;BME280;21711;49.708;18.568;2023-03-01T07:59:52;98362.75;;;10.32;45.54
31346;BME280;21711;49.708;18.568;2023-03-01T08:02:19;98361.59;;;10.06;46.49
31346;BME280;21711;49.708;18.568;2023-03-01T08:04:47;98349.78;;;11.20;44.25
31346;BME280;21711;49.708;18.568;2023-03-01T08:07:14;98355.22;;;11.08;43.14
31346;BME280;21711;49.708;18.568;2023-03-01T08:09:41;98357.91;;;11.74;42.06
31346;BME280;21711;49.708;18.568;2023-03-01T08:12:08;98362.09;;;12.40;39.93
31346;BME280;21711;49.708;18.568;2023-03-01T08:14:36;98358.34;;;12.31;40.90
31346;BME280;21711;49.708;18.568;2023-03-01T08:17:03;98349.47;;;13.48;37.77
31346;BME280;21711;49.708;18.568;2023-03-01T08:19:30;98345.97;;;13.73;36.16
31346;BME280;21711;49.708;18.568;2023-03-01T08:21:58;98335.56;;;14.13;36.69
31346;BME280;21711;49.708;18.568;2023-03-01T08:24:26;98350.66;;;14.39;35.43
31346;BME280;21711;49.708;18.568;2023-03-01T08:26:54;98343.44;;;14.55;34.70
31346;BME280;21711;49.708;18.568;2023-03-01T08:29:22;98334.56;;;13.67;35.74
31346;BME280;21711;49.708;18.568;2023-03-01T08:31:49;98333.25;;;13.60;36.81
31346;BME280;21711;49.708;18.568;2023-03-01T08:34:18;98326.81;;;13.92;35.95
31346;BME280;21711;49.708;18.568;2023-03-01T08:36:46;98341.25;;;15.63;33.71
31346;BME280;21711;49.708;18.568;2023-03-01T08:39:16;98327.13;;;15.22;33.34
31346;BME280;21711;49.708;18.568;2023-03-01T08:41:43;98323.31;;;14.17;35.16
31346;BME280;21711;49.708;18.568;2023-03-01T08:44:15;98325.84;;;15.55;33.34
31346;BME280;21711;49.708;18.568;2023-03-01T08:46:44;98322.91;;;15.16;32.74
31346;BME280;21711;49.708;18.568;2023-03-01T08:49:17;98323.47;;;15.83;32.78
31346;BME280;21711;49.708;18.568;2023-03-01T08:51:46;98312.16;;;14.86;33.54
31346;BME280;21711;49.708;18.568;2023-03-01T08:54:19;98314.22;;;16.73;31.13
31346;BME280;21711;49.708;18.568;2023-03-01T08:56:48;98315.09;;;17.45;29.41
31346;BME280;21711;49.708;18.568;2023-03-01T08:59:17;98321.38;;;18.01;29.62
31346;BME280;21711;49.708;18.568;2023-03-01T09:01:44;98313.69;;;16.95;29.65
31346;BME280;21711;49.708;18.568;2023-03-01T09:04:13;98304.09;;;17.66;28.52
31346;BME280;21711;49.708;18.568;2023-03-01T09:06:41;98312.22;;;17.74;28.23
31346;BME280;21711;49.708;18.568;2023-03-01T09:09:15;98313.31;;;17.73;26.78
31346;BME280;21711;49.708;18.568;2023-03-01T09:11:44;98318.81;;;18.52;27.56
31346;BME280;21711;49.708;18.568;2023-03-01T09:14:14;98324.28;;;18.19;27.43
31346;BME280;21711;49.708;18.568;2023-03-01T09:16:42;98319.59;;;17.30;29.28
31346;BME280;21711;49.708;18.568;2023-03-01T09:19:09;98317.75;;;17.64;29.01
31346;BME280;21711;49.708;18.568;2023-03-01T09:21:37;98319.03;;;18.56;26.90
31346;BME280;21711;49.708;18.568;2023-03-01T09:24:13;98313.53;;;18.05;26.98
31346;BME280;21711;49.708;18.568;2023-03-01T09:26:42;98312.16;;;16.89;28.70
31346;BME280;21711;49.708;18.568;2023-03-01T09:29:09;98321.69;;;18.14;27.94
31346;BME280;21711;49.708;18.568;2023-03-01T09:31:37;98327.19;;;18.88;26.61
31346;BME280;21711;49.708;18.568;2023-03-01T09:34:06;98323.25;;;19.45;25.70
31346;BME280;21711;49.708;18.568;2023-03-01T09:36:33;98322.56;;;17.62;27.01
31346;BME280;21711;49.708;18.568;2023-03-01T09:39:02;98325.91;;;17.87;27.52
31346;BME280;21711;49.708;18.568;2023-03-01T09:44:29;98321.00;;;17.61;27.57
31346;BME280;21711;49.708;18.568;2023-03-01T09:46:59;98321.13;;;18.45;27.08
31346;BME280;21711;49.708;18.568;2023-03-01T09:49:33;98328.59;;;20.89;25.10
31346;BME280;21711;49.708;18.568;2023-03-01T09:54:56;98332.56;;;21.27;23.42
31346;BME280;21711;49.708;18.568;2023-03-01T10:00:36;98316.59;;;21.05;23.65
31346;BME280;21711;49.708;18.568;2023-03-01T10:03:26;98310.75;;;20.35;23.79
31346;BME280;21711;49.708;18.568;2023-03-01T10:06:27;98315.88;;;20.81;24.01
31346;BME280;21711;49.708;18.568;2023-03-01T10:09:12;98307.72;;;21.13;23.98
31346;BME280;21711;49.708;18.568;2023-03-01T10:11:53;98299.28;;;20.03;24.21
31346;BME280;21711;49.708;18.568;2023-03-01T10:17:55;98300.16;;;20.30;23.74
31346;BME280;21711;49.708;18.568;2023-03-01T10:23:11;98294.31;;;19.10;26.45
31346;BME280;21711;49.708;18.568;2023-03-01T10:26:09;98299.16;;;20.08;24.78
31346;BME280;21711;49.708;18.568;2023-03-01T10:31:23;98290.91;;;19.41;24.86
31346;BME280;21711;49.708;18.568;2023-03-01T10:33:56;98282.72;;;18.64;25.31
31346;BME280;21711;49.708;18.568;2023-03-01T10:36:24;98279.44;;;18.39;26.12
31346;BME280;21711;49.708;18.568;2023-03-01T10:38:56;98279.69;;;19.39;25.36
31346;BME280;21711;49.708;18.568;2023-03-01T10:41:26;98280.09;;;19.32;25.35
31346;BME280;21711;49.708;18.568;2023-03-01T10:43:57;98277.56;;;19.27;25.50
31346;BME280;21711;49.708;18.568;2023-03-01T10:51:44;98266.06;;;18.90;26.51
31346;BME280;21711;49.708;18.568;2023-03-01T10:54:31;98268.03;;;18.84;26.44
31346;BME280;21711;49.708;18.568;2023-03-01T10:57:04;98265.38;;;19.21;26.06
31346;BME280;21711;49.708;18.568;2023-03-01T10:59:37;98260.75;;;19.13;26.26
31346;BME280;21711;49.708;18.568;2023-03-01T11:02:27;98257.22;;;19.26;26.58
31346;BME280;21711;49.708;18.568;2023-03-01T11:10:23;98246.41;;;17.59;29.01
31346;BME280;21711;49.708;18.568;2023-03-01T11:12:52;98237.81;;;17.91;28.06
31346;BME280;21711;49.708;18.568;2023-03-01T11:15:28;98248.03;;;19.50;26.16
31346;BME280;21711;49.708;18.568;2023-03-01T11:17:57;98256.00;;;20.81;24.89
31346;BME280;21711;49.708;18.568;2023-03-01T11:20:39;98254.84;;;21.44;22.93
31346;BME280;21711;49.708;18.568;2023-03-01T11:23:12;98252.66;;;21.37;22.86
31346;BME280;21711;49.708;18.568;2023-03-01T11:25:43;98231.66;;;21.04;22.76
31346;BME280;21711;49.708;18.568;2023-03-01T11:28:17;98235.66;;;22.02;22.28
31346;BME280;21711;49.708;18.568;2023-03-01T11:31:00;98237.34;;;21.11;22.21
31346;BME280;21711;49.708;18.568;2023-03-01T11:36:52;98236.97;;;21.87;22.26
31346;BME280;21711;49.708;18.568;2023-03-01T11:39:36;98225.09;;;21.88;22.23
31346;BME280;21711;49.708;18.568;2023-03-01T11:44:49;98235.84;;;21.88;21.96
31346;BME280;21711;49.708;18.568;2023-03-01T11:48:06;98226.13;;;20.91;22.42
31346;BME280;21711;49.708;18.568;2023-03-01T11:50:47;98214.34;;;19.99;23.74
31346;BME280;21711;49.708;18.568;2023-03-01T11:56:25;98202.53;;;18.31;26.18
31346;BME280;21711;49.708;18.568;2023-03-01T11:59:25;98197.38;;;16.45;28.17
31346;BME280;21711;49.708;18.568;2023-03-01T12:05:12;98182.94;;;16.08;29.66
31346;BME280;21711;49.708;18.568;2023-03-01T12:10:23;98193.50;;;17.84;27.34
31346;BME280;21711;49.708;18.568;2023-03-01T12:22:31;98181.94;;;17.61;27.03
31346;BME280;21711;49.708;18.568;2023-03-01T12:25:15;98172.00;;;17.33;27.55
31346;BME280;21711;49.708;18.568;2023-03-01T12:37:43;98151.56;;;15.50;29.26
31346;BME280;21711;49.708;18.568;2023-03-01T12:51:25;98132.41;;;15.92;29.99
31346;BME280;21711;49.708;18.568;2023-03-01T12:53:55;98132.84;;;15.31;30.67
31346;BME280;21711;49.708;18.568;2023-03-01T12:56:28;98137.69;;;14.14;32.81
31346;BME280;21711;49.708;18.568;2023-03-01T12:59:21;98138.44;;;14.65;31.52
31346;BME280;21711;49.708;18.568;2023-03-01T13:02:09;98137.13;;;14.63;32.08
31346;BME280;21711;49.708;18.568;2023-03-01T13:08:07;98129.44;;;14.21;32.15
31346;BME280;21711;49.708;18.568;2023-03-01T13:10:53;98133.22;;;14.50;31.90
31346;BME280;21711;49.708;18.568;2023-03-01T13:13:27;98130.09;;;13.97;32.27
31346;BME280;21711;49.708;18.568;2023-03-01T13:15:56;98123.34;;;13.34;33.93
31346;BME280;21711;49.708;18.568;2023-03-01T13:20:57;98117.53;;;12.33;34.90
31346;BME280;21711;49.708;18.568;2023-03-01T13:23:38;98114.38;;;12.46;35.72
31346;BME280;21711;49.708;18.568;2023-03-01T13:26:18;98114.59;;;12.19;35.76
31346;BME280;21711;49.708;18.568;2023-03-01T13:33:50;98108.59;;;11.75;37.13
31346;BME280;21711;49.708;18.568;2023-03-01T13:44:36;98093.31;;;10.53;40.37
31346;BME280;21711;49.708;18.568;2023-03-01T13:49:57;98097.78;;;9.75;42.21
31346;BME280;21711;49.708;18.568;2023-03-01T13:53:17;98088.38;;;8.66;44.34
31346;BME280;21711;49.708;18.568;2023-03-01T13:56:00;98095.44;;;8.48;44.53
31346;BME280;21711;49.708;18.568;2023-03-01T13:58:31;98099.03;;;8.42;44.50
31346;BME280;21711;49.708;18.568;2023-03-01T14:01:05;98093.59;;;8.32;44.46
31346;BME280;21711;49.708;18.568;2023-03-01T14:03:40;98085.28;;;7.94;44.84
31346;BME280;21711;49.708;18.568;2023-03-01T14:06:39;98090.50;;;8.06;46.22
31346;BME280;21711;49.708;18.568;2023-03-01T14:09:18;98088.50;;;7.07;47.33
31346;BME280;21711;49.708;18.568;2023-03-01T14:18:01;98084.28;;;6.82;49.55
31346;BME280;21711;49.708;18.568;2023-03-01T14:20:38;98077.28;;;6.52;49.27
31346;BME280;21711;49.708;18.568;2023-03-01T14:23:13;98086.31;;;6.44;50.66
31346;BME280;21711;49.708;18.568;2023-03-01T14:25:57;98082.88;;;6.55;50.00
31346;BME280;21711;49.708;18.568;2023-03-01T14:28:32;98083.13;;;6.78;50.24
31346;BME280;21711;49.708;18.568;2023-03-01T14:31:02;98085.44;;;6.86;49.67
31346;BME280;21711;49.708;18.568;2023-03-01T14:33:31;98086.34;;;6.68;48.82
31346;BME280;21711;49.708;18.568;2023-03-01T14:36:04;98091.78;;;6.54;48.96
31346;BME280;21711;49.708;18.568;2023-03-01T14:38:37;98083.69;;;6.56;51.74
31346;BME280;21711;49.708;18.568;2023-03-01T14:41:13;98088.47;;;6.59;49.71
31346;BME280;21711;49.708;18.568;2023-03-01T14:43:54;98091.28;;;6.34;48.65
31346;BME280;21711;49.708;18.568;2023-03-01T14:46:30;98085.13;;;6.40;49.93
31346;BME280;21711;49.708;18.568;2023-03-01T14:51:42;98084.97;;;6.23;48.86
31346;BME280;21711;49.708;18.568;2023-03-01T14:54:25;98083.44;;;6.15;49.89
31346;BME280;21711;49.708;18.568;2023-03-01T14:56:59;98081.44;;;5.98;50.43
31346;BME280;21711;49.708;18.568;2023-03-01T14:59:27;98080.25;;;5.94;49.70
31346;BME280;21711;49.708;18.568;2023-03-01T15:01:57;98077.94;;;6.04;50.76
31346;BME280;21711;49.708;18.568;2023-03-01T15:04:26;98081.44;;;5.98;52.01